Keesler Air Force Base
KBIX : now visible

Airfield :











YOU CAN JOIN US ON...

 
LOGIN :

Register | Disclaimer

   EN    FR    IT 

 









Legend :    VFR   Marginal VFR   IFR   Intensive IFR   Very Intensive IFR
Visi :
Ceiling :
>= 8 km
>= 3000ft
5 to 8 km
1000 to 3000 ft
1500m to 5 km
500 to 1000 ft
800 to 1500m
200 to 500 ft
< 800m
< 200 ft
Symbols :   Thunderstorms  Fog  Heavy snow  Heavy precipitations  Wind > 20 kt






- Airport Elevation : 33 ft


KBIX - Keesler Air Force Base

CURRENT METAR :
  • 191655Z AUTO 06006KT 10SM FEW050 SCT160 BKN200 27/24 A2999 RMK AO2 LTG DSNT SE AND SW SLP158 T02730235

EXPIRED METARs :
  • 191555Z AUTO 08004KT 10SM SCT190 BKN210 27/24 A2999 RMK AO2 LTG DSNT NW SLP158 T02710241
  • 191455Z AUTO 04008KT 10SM BKN190 28/25 A2998 RMK AO2 SLP155 60000 T02820246 53011

TAF TAF KBIX
Valid from the 19 at 10:00 until the 20 at 16:00 UTC


191000Z 1910/2016 21006KT 9999 VCSH SCT025 BKN040 BKN150 QNH2990INS
TEMPO 1910/1914 VRB12G18KT 8000 -TSRA BKN020CB OVC060
BECMG 1917/1918 20009KT 9999 VCTS SCT040CB BKN100 QNH2988INS
TEMPO 1918/1923 VRB15G20KT 6000 -TSRA BKN025CB OVC040
BECMG 1922/1923 22009KT 9999 NSW FEW030 SCT120 QNH2995INS TX31/1920Z TN24/1911Z
KZHU FIR / North America



MET'MAP, your aeronautical weather chart ! - Copyright ORBIFLY December 2007 - Disclaimer

ORBIFLY MET'MAP TEAM :

Programming & Development : Alexandra Zaïnal
Original concept : Baudouin d'Aumeries
Technical & hardware support : Manuel Goepfert
Assistance : Marc-Olivier Méhu




SOURCES & CREDITS :

   NOAA       Earth
Advisory